This is the latest recevied weather packets stored in our database for station/object F4DVI. If no packets are shown the sender has not sent any weather packets the latest 1 day(s).
| Time | Temp. | Humidity | Pressure | Rain* | Wind** | Luminosity | Snow |
|---|---|---|---|---|---|---|---|
| 1778104110 | 11.67° C | 78% | 0 hPa | 0 mm | - | - | - |
| 1778103210 | 11.67° C | 78% | 0 hPa | 0 mm | - | - | - |
| 1778102910 | 12.22° C | 78% | 0 hPa | 0 mm | - | - | - |
| 1778102610 | 12.22° C | 78% | 0 hPa | 0 mm | - | - | - |
| 1778101110 | 12.22° C | 77% | 0 hPa | 0 mm | - | - | - |
| 1778092110 | 15.56° C | 65% | 0 hPa | 0 mm | - | - | - |
| 1778079511 | 20° C | 52% | 0 hPa | 0 mm | - | - | - |
| 1778077711 | 20° C | 56% | 0 hPa | 0 mm | - | - | - |
| 1778077411 | 19.44° C | 55% | 0 hPa | 0 mm | - | - | - |
| 1778077111 | 19.44° C | 56% | 0 hPa | 0 mm | - | - | - |
| 1778076811 | 18.89° C | 56% | 0 hPa | 0 mm | - | - | - |
| 1778076511 | 18.89° C | 57% | 0 hPa | 0 mm | - | - | - |
| 1778076211 | 18.89° C | 56% | 0 hPa | 0 mm | - | - | - |
| 1778075911 | 18.33° C | 58% | 0 hPa | 0 mm | - | - | - |
| 1778075611 | 18.33° C | 59% | 0 hPa | 0 mm | - | - | - |
| 1778075311 | 17.22° C | 59% | 0 hPa | 0 mm | - | - | - |
| 1778075011 | 17.78° C | 60% | 0 hPa | 0 mm | - | - | - |
| 1778074711 | 18.33° C | 61% | 0 hPa | 0 mm | - | - | - |
| 1778074411 | 18.33° C | 61% | 0 hPa | 0 mm | - | - | - |
| 1778074111 | 18.33° C | 62% | 0 hPa | 0 mm | - | - | - |
| 1778073811 | 17.78° C | 62% | 0 hPa | 0 mm | - | - | - |
| 1778073511 | 18.33° C | 62% | 0 hPa | 0 mm | - | - | - |
| 1778073211 | 17.78° C | 62% | 0 hPa | 0 mm | - | - | - |
| 1778072911 | 17.78° C | 63% | 0 hPa | 0 mm | - | - | - |
| 1778072611 | 17.22° C | 63% | 0 hPa | 0 mm | - | - | - |
* Rain latest hour (hover to see other rain measurements)
** Current wind speed in m/s (hover to see current wind gust speed)